Richardton, North Dakota
Current Conditions -  °F | °C
As of 7:35 PM on Thursday 20 Nov 2014 (Local Time) from KD57 Reporting Station
Broken Clouds Broken Clouds  
Wind Chill:   Ceiling: 11000
Heat Index: 18°   Visibility: 10mi
Dew Point: 14°   Wind: 8mph
Humidity: 86%   Direction: 180°S
Pressure: 29.88"   Gusts: NA
Location:  46.88°N, 102.32°W
Report Text: KD57 210235Z AUTO 18007KT 10SM BKN110 M08/M10 A2988 RMK AO2 TSNO
Loading
Personal Weather Stations






























Interactive Weather Map New forecast layout! Learn more

10-Day Weather Forecast

Advertisements
Track Severe Weather on mobile